Time;durP1;ratioP1;P1;durP2;ratioP2;P2;SDS_P1;SDS_P2;PMS_P1;PMS_P2;Temp;Humidity;BMP_temperature;BMP_pressure;BME280_temperature;BME280_humidity;BME280_pressure;Samples;Min_cycle;Max_cycle;Signal;HPM_P1;HPM_P2
2024/04/11 00:01:44;;;;;;;7.88;1.00;;;;;;;10.19;92.46;99330.94;5529450;26;20034;-94
2024/04/11 00:04:10;;;;;;;4.90;0.95;;;;;;;10.46;91.90;99380.13;5529409;26;20004;-94
2024/04/11 00:06:38;;;;;;;4.95;1.02;;;;;;;10.74;90.26;99390.31;5529118;26;20449;-94
2024/04/11 00:09:07;;;;;;;4.93;0.60;;;;;;;10.74;91.76;99421.38;5529450;26;19997;-95
2024/04/11 00:11:33;;;;;;;4.75;0.90;;;;;;;10.25;92.74;99369.81;5529892;26;20005;-94
2024/04/11 00:20:37;;;;;;;5.55;1.05;;;;;;;10.47;93.88;99424.47;5585480;25;20324;-94
2024/04/11 00:23:04;;;;;;;6.63;1.05;;;;;;;9.94;93.18;99321.63;5546615;25;20464;-93
2024/04/11 00:25:30;;;;;;;3.03;1.08;;;;;;;10.61;92.86;99420.69;5546472;25;20020;-94
2024/04/11 00:27:56;;;;;;;6.80;1.08;;;;;;;10.65;94.04;99412.63;5546535;25;19997;-94
2024/04/11 00:30:22;;;;;;;2.78;0.63;;;;;;;10.10;93.30;99327.56;5546593;25;20050;-95
2024/04/11 00:32:49;;;;;;;6.30;0.90;;;;;;;10.22;94.81;99384.03;5546249;25;19998;-95
2024/04/11 00:35:18;;;;;;;4.93;0.95;;;;;;;10.07;96.20;99390.47;5547050;25;20005;-94
2024/04/11 00:37:48;;;;;;;7.03;0.90;;;;;;;10.24;95.67;99397.31;5546346;25;20005;-94
2024/04/11 00:40:14;;;;;;;4.00;0.95;;;;;;;9.87;99.92;99376.63;5546222;25;20016;-94
2024/04/11 00:42:40;;;;;;;6.90;0.98;;;;;;;9.92;96.23;99334.03;5545995;25;20001;-94
2024/04/11 00:45:07;;;;;;;3.78;1.00;;;;;;;10.34;97.30;99412.22;5546491;25;20008;-95
2024/04/11 00:47:33;;;;;;;4.68;0.80;;;;;;;9.76;99.17;99341.34;5546841;25;20002;-95
2024/04/11 00:49:59;;;;;;;3.75;0.80;;;;;;;10.36;98.24;99397.13;5546977;25;20023;-94
2024/04/11 00:52:26;;;;;;;2.75;0.70;;;;;;;9.74;98.15;99295.38;5546342;25;20029;-96
2024/04/11 00:54:56;;;;;;;7.38;1.00;;;;;;;10.47;98.19;99407.59;5546477;25;19998;-94
2024/04/11 00:57:24;;;;;;;6.03;1.20;;;;;;;10.20;97.88;99395.63;5545950;25;20477;-95
2024/04/11 00:59:50;;;;;;;2.17;0.63;;;;;;;10.40;96.56;99414.81;5546117;25;20060;-93
2024/04/11 01:02:17;;;;;;;3.00;0.95;;;;;;;10.33;96.57;99401.66;5546424;25;20001;-95
2024/04/11 01:04:44;;;;;;;8.82;1.10;;;;;;;9.58;97.30;99298.22;5546314;25;19993;-95
2024/04/11 01:07:12;;;;;;;3.05;1.10;;;;;;;9.92;95.62;99337.56;5549071;25;20029;-95
2024/04/11 01:09:43;;;;;;;4.20;0.82;;;;;;;10.32;93.47;99350.25;5546831;25;20013;-95
2024/04/11 01:12:13;;;;;;;3.20;0.80;;;;;;;10.70;92.99;99380.63;5546057;25;20031;-95
2024/04/11 01:14:41;;;;;;;6.07;1.15;;;;;;;10.42;94.23;99354.50;5545849;25;20012;-94
2024/04/11 01:17:07;;;;;;;4.57;0.70;;;;;;;10.92;94.39;99401.53;5546355;25;20468;-95
2024/04/11 01:19:33;;;;;;;10.07;1.83;;;;;;;10.64;93.77;99324.88;5545491;25;19997;-94
2024/04/11 01:22:00;;;;;;;4.13;0.80;;;;;;;10.62;93.89;99318.69;5546452;25;20066;-95
2024/04/11 01:24:29;;;;;;;2.17;0.80;;;;;;;11.02;93.67;99395.13;5546605;25;20013;-95
2024/04/11 01:26:56;;;;;;;6.63;0.93;;;;;;;10.96;93.51;99392.59;5545984;25;20015;-95
2024/04/11 01:29:22;;;;;;;3.30;0.57;;;;;;;10.91;93.61;99392.66;5546309;25;19997;-95
2024/04/11 01:31:53;;;;;;;3.85;0.75;;;;;;;10.22;93.24;99275.06;5530996;25;20004;-94
2024/04/11 01:34:19;;;;;;;3.97;0.90;;;;;;;10.53;95.74;99358.75;5530051;26;20001;-94
2024/04/11 01:36:45;;;;;;;2.65;0.70;;;;;;;10.54;95.08;99355.19;5530146;26;20046;-94
2024/04/11 01:39:11;;;;;;;4.45;0.73;;;;;;;10.33;95.25;99329.88;5530165;26;20002;-95
2024/04/11 01:41:40;;;;;;;3.45;0.75;;;;;;;10.37;95.81;99336.91;5529746;26;20008;-95
2024/04/11 01:44:06;;;;;;;6.65;0.90;;;;;;;10.64;96.44;99397.56;5529696;26;20005;-95
2024/04/11 01:46:32;;;;;;;2.65;0.70;;;;;;;10.63;95.82;99392.28;5529373;26;19997;-94
2024/04/11 01:49:00;;;;;;;6.40;1.13;;;;;;;9.77;99.72;99321.88;5530090;26;20477;-96
2024/04/11 01:51:26;;;;;;;5.07;0.95;;;;;;;10.15;100.00;99401.00;5530052;26;20008;-95
2024/04/11 01:53:53;;;;;;;5.60;0.75;;;;;;;10.18;100.00;99392.09;5529469;26;20017;-95
2024/04/11 01:56:19;;;;;;;3.05;0.73;;;;;;;10.12;100.00;99353.19;5529599;26;20002;-95
2024/04/11 01:58:48;;;;;;;2.90;0.95;;;;;;;9.55;100.00;99261.09;5529357;26;19997;-96
2024/04/11 02:01:19;;;;;;;2.08;0.57;;;;;;;10.24;100.00;99384.91;5529347;26;20002;-96
2024/04/11 02:03:45;;;;;;;10.88;1.30;;;;;;;10.38;98.19;99386.50;5529244;26;19997;-95
2024/04/11 02:06:13;;;;;;;1.38;0.52;;;;;;;10.28;99.82;99377.78;5529225;26;20077;-96
2024/04/11 02:08:41;;;;;;;6.63;1.38;;;;;;;10.26;98.98;99387.53;5529868;26;20016;-96
2024/04/11 02:11:07;;;;;;;1.55;0.70;;;;;;;10.33;99.02;99393.66;5529470;26;19997;-95
2024/04/11 02:13:33;;;;;;;3.50;0.70;;;;;;;10.27;98.79;99390.16;5529519;26;20017;-95
2024/04/11 02:16:01;;;;;;;3.92;0.60;;;;;;;10.38;97.70;99398.00;5529519;26;20020;-95
2024/04/11 02:18:27;;;;;;;4.57;0.88;;;;;;;10.03;99.04;99353.34;5529284;25;20005;-96
2024/04/11 02:20:56;;;;;;;3.53;0.90;;;;;;;10.25;99.57;99389.31;5499210;26;20038;-95
2024/04/11 02:23:23;;;;;;;6.78;1.08;;;;;;;10.27;98.94;99395.47;5498364;26;20009;-95
2024/04/11 02:25:51;;;;;;;3.35;1.00;;;;;;;10.20;99.52;99388.50;5498101;26;20009;-95
2024/04/11 02:28:19;;;;;;;3.42;0.80;;;;;;;10.11;99.55;99401.94;5498295;26;20012;-94
2024/04/11 02:30:45;;;;;;;2.63;0.68;;;;;;;9.63;99.54;99338.88;5498330;26;20009;-95
2024/04/11 02:33:14;;;;;;;2.75;1.13;;;;;;;10.12;99.51;99403.69;5498255;26;20004;-96
2024/04/11 02:35:40;;;;;;;5.57;0.75;;;;;;;10.20;98.99;99383.19;5497995;26;19997;-96
2024/04/11 02:38:06;;;;;;;8.55;0.77;;;;;;;9.70;99.04;99307.81;5498253;26;20012;-96
2024/04/11 02:40:32;;;;;;;6.40;1.67;;;;;;;9.94;100.00;99386.25;5498502;26;19994;-96
2024/04/11 02:42:58;;;;;;;3.92;1.50;;;;;;;9.29;100.00;99282.72;5496963;26;20007;-95
2024/04/11 02:45:24;;;;;;;2.00;0.93;;;;;;;9.62;100.00;99384.91;5501796;26;20009;-95
2024/04/11 02:47:50;;;;;;;4.78;0.70;;;;;;;9.68;100.00;99399.03;5498434;26;20065;-95
2024/04/11 02:50:23;;;;;;;4.00;0.60;;;;;;;9.42;100.00;99365.72;5497964;26;20009;-95
2024/04/11 02:52:49;;;;;;;7.05;1.15;;;;;;;9.76;100.00;99413.06;5497994;26;19997;-95
2024/04/11 02:55:16;;;;;;;2.78;0.60;;;;;;;9.82;100.00;99416.53;5498125;26;20073;-95
2024/04/11 02:57:43;;;;;;;4.47;0.85;;;;;;;9.71;100.00;99412.25;5497767;26;20054;-94
2024/04/11 03:00:11;;;;;;;6.18;0.55;;;;;;;9.37;100.00;99347.19;5497781;26;20004;-94
2024/04/11 03:02:37;;;;;;;5.18;1.02;;;;;;;9.49;100.00;99378.00;5497742;26;20043;-94
2024/04/11 03:05:05;;;;;;;2.55;1.05;;;;;;;9.56;100.00;99419.50;5498012;26;19997;-94
2024/04/11 03:07:34;;;;;;;5.30;1.17;;;;;;;9.20;100.00;99343.88;5498317;26;20037;-95
2024/04/11 03:10:01;;;;;;;6.38;0.65;;;;;;;9.41;100.00;99419.69;5498361;26;20045;-96
2024/04/11 03:12:28;;;;;;;2.97;0.80;;;;;;;9.43;100.00;99416.16;5498735;26;20030;-94
2024/04/11 03:14:54;;;;;;;3.83;0.95;;;;;;;9.43;100.00;99423.22;5498037;26;20012;-94
2024/04/11 03:17:20;;;;;;;3.58;0.73;;;;;;;9.43;100.00;99433.81;5497529;26;20458;-95
2024/04/11 03:19:46;;;;;;;8.40;1.60;;;;;;;9.44;100.00;99443.56;5512336;25;20016;-94
2024/04/11 03:22:12;;;;;;;3.05;0.90;;;;;;;9.06;100.00;99389.13;5528100;26;20009;-94
2024/04/11 03:24:42;;;;;;;4.35;1.00;;;;;;;9.24;100.00;99436.72;5528472;26;20045;-94
2024/04/11 03:27:08;;;;;;;3.95;0.82;;;;;;;9.25;100.00;99437.56;5529321;26;20001;-96
2024/04/11 03:29:34;;;;;;;4.45;1.10;;;;;;;8.41;100.00;99372.97;5528644;26;20005;-95
2024/04/11 03:32:00;;;;;;;4.57;0.73;;;;;;;8.78;100.00;99399.16;5528106;26;20326;-95
2024/04/11 03:34:26;;;;;;;6.28;1.15;;;;;;;8.35;100.00;99320.91;5528150;26;20485;-96
2024/04/11 03:36:54;;;;;;;3.63;1.08;;;;;;;8.60;100.00;99397.56;5527792;26;20078;-95
2024/04/11 03:39:21;;;;;;;1.83;0.73;;;;;;;8.43;100.00;99342.91;5527981;26;19998;-95
2024/04/11 03:41:52;;;;;;;8.38;1.50;;;;;;;8.53;100.00;99367.56;5527958;26;20008;-95
2024/04/11 03:44:18;;;;;;;6.68;0.98;;;;;;;8.19;100.00;99319.25;5528135;26;20005;-94
2024/04/11 03:46:44;;;;;;;6.82;0.82;;;;;;;8.99;100.00;99454.63;5528304;26;20405;-95
2024/04/11 03:49:10;;;;;;;5.72;1.05;;;;;;;8.90;100.00;99422.03;5527973;26;20549;-95
2024/04/11 03:51:39;;;;;;;4.57;0.80;;;;;;;8.92;100.00;99422.91;5528163;26;20445;-95
2024/04/11 03:54:07;;;;;;;1.45;0.77;;;;;;;8.56;100.00;99371.97;5527849;26;20061;-95
2024/04/11 03:56:34;;;;;;;10.32;1.05;;;;;;;8.50;100.00;99366.72;5527851;26;20001;-95
2024/04/11 03:59:04;;;;;;;4.32;0.75;;;;;;;8.91;100.00;99442.34;5528215;26;20001;-94
2024/04/11 04:01:30;;;;;;;11.27;1.77;;;;;;;8.09;100.00;99315.81;5527695;26;20006;-95
2024/04/11 04:04:01;;;;;;;3.95;0.80;;;;;;;8.15;100.00;99325.47;5528305;26;20449;-94
2024/04/11 04:06:27;;;;;;;3.60;1.00;;;;;;;8.75;100.00;99444.28;5528410;26;19997;-94
2024/04/11 04:08:54;;;;;;;3.22;1.20;;;;;;;8.39;100.00;99361.47;5528230;26;20005;-94
2024/04/11 04:11:21;;;;;;;5.60;1.35;;;;;;;8.85;100.00;99456.56;5527612;26;20001;-94
2024/04/11 04:13:47;;;;;;;3.45;0.60;;;;;;;8.12;100.00;99328.16;5533068;26;20015;-95
2024/04/11 04:16:16;;;;;;;8.38;0.80;;;;;;;8.90;100.00;99443.25;5529608;26;20046;-95
2024/04/11 04:18:47;;;;;;;4.25;1.15;;;;;;;8.63;100.00;99397.50;5528438;25;20002;-95
2024/04/11 04:21:13;;;;;;;7.75;1.00;;;;;;;8.55;100.00;99378.19;5497415;26;20001;-95
2024/04/11 04:23:42;;;;;;;4.88;0.90;;;;;;;9.08;100.00;99456.31;5497371;26;19998;-94
2024/04/11 04:26:09;;;;;;;3.53;0.70;;;;;;;9.07;100.00;99449.28;5496884;26;19997;-95
2024/04/11 04:28:38;;;;;;;2.88;0.93;;;;;;;8.94;100.00;99416.69;5497256;26;20001;-95
2024/04/11 04:31:17;;;;;;;6.43;1.05;;;;;;;8.77;100.00;99385.00;5503426;25;20001;-94
2024/04/11 04:33:47;;;;;;;2.90;0.90;;;;;;;8.57;100.00;99369.31;5482642;25;19998;-96
2024/04/11 04:36:16;;;;;;;4.40;0.88;;;;;;;8.29;100.00;99370.41;5482333;25;19997;-95
2024/04/11 04:38:44;;;;;;;5.20;1.02;;;;;;;8.70;100.00;99444.31;5482589;25;19994;-95
2024/04/11 04:41:11;;;;;;;6.00;1.42;;;;;;;8.93;100.00;99452.03;5475736;26;20013;-95
2024/04/11 04:43:37;;;;;;;3.25;0.75;;;;;;;8.98;100.00;99454.69;5468437;26;19994;-95
2024/04/11 04:46:05;;;;;;;3.55;0.95;;;;;;;8.30;100.00;99314.72;5468274;26;19998;-95
2024/04/11 04:48:34;;;;;;;2.53;0.88;;;;;;;8.57;100.00;99376.38;5468050;26;20014;-95
2024/04/11 04:51:00;;;;;;;6.88;1.10;;;;;;;8.25;100.00;99329.81;5461564;26;20006;-94
2024/04/11 04:53:27;;;;;;;4.40;0.77;;;;;;;8.37;100.00;99390.66;5460349;26;20002;-95
2024/04/11 04:55:53;;;;;;;4.10;0.70;;;;;;;8.94;100.00;99466.22;5460973;26;20006;-94
2024/04/11 04:58:19;;;;;;;4.07;1.17;;;;;;;8.95;100.00;99460.00;5460794;26;20014;-95
2024/04/11 05:00:46;;;;;;;3.00;0.98;;;;;;;8.89;100.00;99460.03;5460177;26;20042;-95
2024/04/11 05:03:14;;;;;;;4.25;1.10;;;;;;;8.88;100.00;99459.16;5460162;26;20006;-95
2024/04/11 05:05:44;;;;;;;6.72;1.02;;;;;;;8.50;100.00;99417.97;5461847;26;20002;-95
2024/04/11 05:08:13;;;;;;;2.58;0.77;;;;;;;8.22;100.00;99345.75;5465569;26;20043;-94
2024/04/11 05:10:58;;;;;;;4.95;1.33;;;;;;;8.52;100.00;99388.78;5465494;26;20022;-95
2024/04/11 05:13:29;;;;;;;5.20;1.00;;;;;;;8.09;100.00;99333.47;5476069;26;20492;-96
2024/04/11 05:15:57;;;;;;;5.15;0.75;;;;;;;8.17;100.00;99343.09;5472830;26;20002;-96
2024/04/11 05:18:23;;;;;;;3.63;0.68;;;;;;;8.96;100.00;99459.13;5470736;26;20019;-96
2024/04/11 05:20:56;;;;;;;5.50;1.40;;;;;;;8.34;100.00;99350.91;5474604;26;20030;-95
2024/04/11 05:23:32;;;;;;;3.45;0.90;;;;;;;9.32;100.00;99475.53;5476904;26;20002;-95
2024/04/11 05:26:14;;;;;;;6.07;1.00;;;;;;;9.45;100.00;99479.81;5506927;26;20013;-96
2024/04/11 05:28:51;;;;;;;7.13;1.52;;;;;;;8.75;100.00;99338.19;5476638;26;20019;-96
2024/04/11 05:31:25;;;;;;;2.78;0.93;;;;;;;9.45;100.00;99466.53;5507753;26;20005;-96
2024/04/11 05:33:59;;;;;;;1.75;0.60;;;;;;;9.12;100.00;99383.75;5476059;26;20002;-96
2024/04/11 05:36:28;;;;;;;1.33;0.75;;;;;;;9.05;100.00;99343.16;5471895;26;19994;-96
2024/04/11 05:38:55;;;;;;;2.13;1.00;;;;;;;9.38;100.00;99369.31;5467471;26;20096;-96
2024/04/11 05:41:21;;;;;;;7.18;1.25;;;;;;;10.22;100.00;99471.75;5471097;26;20334;-96
2024/04/11 05:43:49;;;;;;;2.65;1.50;;;;;;;9.57;100.00;99341.63;5469692;26;20011;-96
2024/04/11 05:46:18;;;;;;;4.95;1.73;;;;;;;9.84;100.00;99374.00;5469444;26;20002;-96
2024/04/11 05:48:44;;;;;;;9.40;2.38;;;;;;;10.18;100.00;99416.00;5469355;26;20002;-96
2024/04/11 05:51:11;;;;;;;4.72;1.48;;;;;;;10.82;100.00;99484.19;5468091;26;20061;-96
2024/04/11 05:53:41;;;;;;;5.97;1.30;;;;;;;10.91;100.00;99480.47;5468760;26;20021;-96
2024/04/11 05:56:08;;;;;;;5.82;1.60;;;;;;;11.19;100.00;99480.88;5472117;26;20009;-96
2024/04/11 05:58:40;;;;;;;4.38;1.67;;;;;;;10.86;100.00;99430.00;5473746;26;20030;-96
2024/04/11 06:01:09;;;;;;;18.00;5.80;;;;;;;11.02;100.00;99433.25;5467260;26;20489;-96
2024/04/11 06:03:36;;;;;;;8.82;2.42;;;;;;;11.65;99.60;99498.63;5465666;26;20002;-96
2024/04/11 06:06:03;;;;;;;3.28;1.15;;;;;;;11.09;95.54;99388.78;5468266;26;19998;-96
2024/04/11 06:08:29;;;;;;;9.85;2.60;;;;;;;11.23;94.74;99383.16;5467174;26;19998;-96
2024/04/11 06:10:59;;;;;;;6.40;1.50;;;;;;;11.56;90.96;99424.25;5467569;26;19995;-96
2024/04/11 06:13:27;;;;;;;;;;;;;;;12.15;89.16;99508.31;5468607;26;20028;-96
2024/04/11 06:15:56;;;;;;;5.65;1.70;;;;;;;11.46;90.61;99398.69;5467636;26;19931;-96
2024/04/11 06:18:28;;;;;;;6.60;1.83;;;;;;;11.97;89.76;99478.47;5470902;26;20001;-95
2024/04/11 06:20:54;;;;;;;5.95;1.02;;;;;;;12.13;89.33;99522.53;5430994;26;20041;-96
2024/04/11 06:23:21;;;;;;;5.20;1.27;;;;;;;12.24;87.68;99508.97;5429494;26;20003;-94
2024/04/11 06:25:47;;;;;;;4.40;1.27;;;;;;;11.91;88.11;99407.53;5429846;26;20003;-95
2024/04/11 06:28:18;;;;;;;7.68;1.38;;;;;;;12.11;85.59;99391.06;5429980;26;19999;-95
2024/04/11 06:30:46;;;;;;;4.18;1.23;;;;;;;12.89;84.57;99505.69;5429948;26;20010;-95
2024/04/11 06:33:14;;;;;;;5.95;1.30;;;;;;;13.24;83.12;99503.03;5429819;26;20003;-95
2024/04/11 06:35:40;;;;;;;4.65;0.85;;;;;;;12.78;79.47;99382.31;5431531;26;20002;-96
2024/04/11 06:38:09;;;;;;;6.60;1.25;;;;;;;13.64;78.70;99502.88;5431951;26;20003;-96
2024/04/11 06:40:36;;;;;;;6.65;1.35;;;;;;;13.07;78.70;99388.66;5436318;26;20022;-96
2024/04/11 06:43:03;;;;;;;5.05;1.25;;;;;;;13.82;78.05;99511.31;5433591;26;20060;-96
2024/04/11 06:45:33;;;;;;;4.72;1.80;;;;;;;12.99;77.62;99386.22;5433552;26;20009;-95
2024/04/11 06:48:00;;;;;;;2.83;1.10;;;;;;;13.72;77.94;99516.88;5447401;26;20006;-94
2024/04/11 06:50:26;;;;;;;3.35;1.40;;;;;;;13.35;78.65;99442.22;5448389;26;19999;-95
2024/04/11 06:52:52;;;;;;;5.13;1.20;;;;;;;12.91;78.59;99402.41;5498108;20;19995;-96
2024/04/11 06:55:19;;;;;;;8.18;1.60;;;;;;;13.50;78.15;99464.97;5412057;26;19992;-96
2024/04/11 06:57:46;;;;;;;10.43;1.55;;;;;;;14.07;77.79;99533.72;5411301;26;19999;-96
2024/04/11 07:00:21;;;;;;;3.85;0.93;;;;;;;14.34;76.53;99528.50;5406771;26;20015;-96
2024/04/11 07:02:50;;;;;;;6.20;1.85;;;;;;;13.93;75.21;99432.53;5407714;26;20003;-96
2024/04/11 07:05:17;;;;;;;4.72;0.88;;;;;;;14.78;74.23;99529.81;5408122;26;20015;-96
2024/04/11 07:07:45;;;;;;;4.38;0.98;;;;;;;14.60;73.34;99478.69;5409095;26;19996;-96
2024/04/11 07:10:24;;;;;;;3.45;1.05;;;;;;;14.09;74.07;99408.84;5428187;26;20446;-96
2024/04/11 07:12:50;;;;;;;7.93;1.35;;;;;;;13.90;74.02;99418.38;5393926;26;20003;-96
2024/04/11 07:15:18;;;;;;;6.70;1.45;;;;;;;14.53;75.00;99542.16;5392799;26;20015;-96
2024/04/11 07:17:58;;;;;;;4.43;1.05;;;;;;;14.73;75.15;99549.63;5393056;26;20077;-96
2024/04/11 07:20:26;;;;;;;3.65;1.23;;;;;;;14.53;75.53;99478.84;5392421;26;20073;-96
2024/04/11 07:22:54;;;;;;;5.30;1.23;;;;;;;14.66;73.77;99436.53;5392595;26;20015;-96
2024/04/11 07:25:20;;;;;;;5.90;1.45;;;;;;;15.10;72.89;99431.44;5392604;26;20532;-96
2024/04/11 07:27:48;;;;;;;5.43;1.38;;;;;;;15.37;71.46;99483.16;5392885;26;20014;-96
2024/04/11 07:30:14;;;;;;;7.43;1.33;;;;;;;15.71;71.17;99492.72;5392013;26;20009;-96
2024/04/11 07:32:40;;;;;;;6.95;1.63;;;;;;;16.14;70.01;99554.66;5393603;26;19999;-96
2024/04/11 07:35:14;;;;;;;6.47;2.20;;;;;;;15.65;69.87;99452.69;5393643;26;20098;-96
2024/04/11 07:37:41;;;;;;;7.03;2.25;;;;;;;15.76;69.31;99441.63;5396316;26;20004;-96
2024/04/11 07:40:27;;;;;;;7.13;2.22;;;;;;;15.93;69.26;99435.63;5394297;26;19999;-96
2024/04/11 07:42:55;;;;;;;6.35;2.42;;;;;;;16.37;68.64;99486.66;5393916;26;20043;-96
2024/04/11 07:45:25;;;;;;;10.65;2.70;;;;;;;16.13;67.60;99456.31;5393503;26;20000;-96
2024/04/11 07:47:58;;;;;;;;;;;;;;;16.74;66.88;99555.94;5393222;26;20045;-95
2024/04/11 07:50:27;;;;;;;5.35;2.20;;;;;;;16.31;68.50;99477.06;5394313;26;19931;-96
2024/04/11 07:52:53;;;;;;;8.10;2.72;;;;;;;16.29;67.51;99445.88;5393301;26;20006;-96
2024/04/11 07:55:29;;;;;;;8.40;2.45;;;;;;;16.51;67.08;99433.31;5396732;26;20014;-96
2024/04/11 07:58:05;;;;;;;10.80;2.83;;;;;;;16.94;67.40;99544.41;5401460;26;20007;-96
2024/04/11 08:00:38;;;;;;;9.10;3.42;;;;;;;16.76;67.24;99477.94;5398701;26;19999;-96
2024/04/11 08:03:07;;;;;;;10.95;3.15;;;;;;;16.93;67.16;99480.84;5400450;26;20003;-96
2024/04/11 08:05:58;;;;;;;11.07;3.05;;;;;;;16.71;66.78;99426.25;5395867;26;20049;-95
2024/04/11 08:08:25;;;;;;;12.07;3.42;;;;;;;17.08;66.30;99463.22;5398814;26;20045;-96
2024/04/11 08:11:02;;;;;;;;;;;;;;;17.79;65.74;99541.69;5399120;26;19992;-96
2024/04/11 08:13:30;;;;;;;13.52;3.97;;;;;;;17.48;64.35;99460.59;5403023;26;20016;-96
2024/04/11 08:15:56;;;;;;;11.23;3.72;;;;;;;17.43;64.48;99442.84;5402745;26;20000;-96
2024/04/11 08:18:23;;;;;;;9.60;3.40;;;;;;;17.73;64.29;99477.38;5400901;26;19999;-95
2024/04/11 08:20:56;;;;;;;7.90;3.33;;;;;;;17.38;63.54;99439.50;5394674;26;20007;-96
2024/04/11 08:23:29;;;;;;;10.85;3.22;;;;;;;17.48;63.84;99434.59;5492292;21;20003;-96
2024/04/11 08:28:41;;;;;;;9.35;3.63;;;;;;;17.90;64.16;99483.88;5441279;21;20009;-96
2024/04/11 08:38:12;;;;;;;10.32;3.38;;;;;;;18.52;65.02;99533.91;5545196;21;20018;-96
2024/04/11 08:46:00;;;;;;;7.50;2.78;;;;;;;18.75;62.64;99446.56;5848076;21;20033;-96
2024/04/11 08:48:35;;;;;;;10.95;3.15;;;;;;;19.60;61.49;99545.66;5577243;21;20019;-96
2024/04/11 09:21:04;;;;;;;5.75;2.30;;;;;;;20.25;61.17;99464.81;5651839;21;20005;-96
2024/04/11 09:26:17;;;;;;;5.70;2.05;;;;;;;20.02;58.73;99500.31;5734945;21;20012;-96
2024/04/11 09:32:04;;;;;;;7.68;2.40;;;;;;;20.00;59.40;99442.84;5885726;21;20005;-96
2024/04/11 09:38:13;;;;;;;4.57;2.08;;;;;;;20.35;58.12;99456.22;6065957;21;20004;-96
2024/04/11 09:41:11;;;;;;;7.07;2.10;;;;;;;20.90;56.95;99553.94;5695648;21;20007;-95
2024/04/11 09:47:44;;;;;;;5.78;2.50;;;;;;;21.38;55.45;99545.78;5366726;21;20034;-96
2024/04/11 09:50:30;;;;;;;8.25;2.13;;;;;;;21.58;54.21;99557.28;5388777;21;20006;-96
2024/04/11 09:53:10;;;;;;;5.93;2.53;;;;;;;21.32;53.38;99467.72;5635891;21;21142;-96
2024/04/11 09:55:49;;;;;;;5.38;2.28;;;;;;;21.71;53.90;99555.59;5372948;21;20030;31
2024/04/11 10:01:08;;;;;;;5.72;2.10;;;;;;;20.46;56.35;99464.56;5514161;21;19951;-96
2024/04/11 10:08:16;;;;;;;7.10;2.45;;;;;;;20.46;56.59;99580.75;5523895;21;20014;-96
2024/04/11 10:11:10;;;;;;;3.88;1.95;;;;;;;19.58;57.68;99507.09;5289400;21;20014;-93
2024/04/11 10:14:02;;;;;;;6.00;2.85;;;;;;;19.83;58.28;99474.31;5291569;27;20338;-96
2024/04/11 10:22:58;;;;;;;7.43;2.63;;;;;;;20.15;57.70;99586.94;5446478;21;20443;-94
2024/04/11 10:42:43;;;;;;;7.97;2.95;;;;;;;20.84;55.46;99591.28;5460602;22;20531;-95
2024/04/11 10:45:17;;;;;;;3.95;2.60;;;;;;;20.81;54.33;99477.94;5301784;22;20002;-96
2024/04/11 10:48:24;;;;;;;6.72;3.03;;;;;;;20.55;53.03;99476.69;5292246;27;20033;-95
2024/04/11 10:51:00;;;;;;;5.05;3.05;;;;;;;20.49;53.11;99472.50;5266731;27;20015;-96
2024/04/11 10:53:33;;;;;;;4.10;2.50;;;;;;;20.79;53.97;99556.41;5402082;21;20019;-96
2024/04/11 10:56:26;;;;;;;8.15;2.58;;;;;;;20.56;55.11;99498.22;5286051;22;20056;-96
2024/04/11 11:11:11;;;;;;;5.40;2.83;;;;;;;21.37;52.63;99543.19;5315902;21;20030;-94
2024/04/11 11:13:40;;;;;;;6.78;2.65;;;;;;;21.72;52.53;99562.75;5281136;27;20009;-96
2024/04/11 11:16:31;;;;;;;4.50;2.75;;;;;;;21.74;52.78;99560.81;5528479;22;20010;-96
2024/04/11 11:19:20;;;;;;;6.10;3.03;;;;;;;21.48;51.76;99533.47;5436576;22;20019;-96
2024/04/11 11:22:01;;;;;;;5.50;2.70;;;;;;;21.70;51.65;99505.97;5225424;27;20011;-96
2024/04/11 11:24:34;;;;;;;5.40;2.83;;;;;;;21.03;52.86;99508.16;5462595;22;20002;-94
2024/04/11 11:27:05;;;;;;;9.95;3.10;;;;;;;21.28;52.49;99564.41;5257457;27;20017;-96
2024/04/11 11:35:24;;;;;;;5.90;2.63;;;;;;;21.27;50.91;99448.16;5347866;21;20035;-96
2024/04/11 11:37:56;;;;;;;4.88;2.78;;;;;;;21.33;50.25;99466.72;5295452;26;20020;-96
2024/04/11 11:40:37;;;;;;;6.63;2.70;;;;;;;21.90;49.93;99493.06;5300147;26;20026;-95
2024/04/11 11:43:16;;;;;;;4.78;2.50;;;;;;;21.80;50.04;99464.81;5296393;27;20006;-96
2024/04/11 11:48:37;;;;;;;5.78;2.65;;;;;;;21.52;50.19;99439.47;5247947;27;20002;-96
2024/04/11 12:01:28;;;;;;;4.85;2.67;;;;;;;21.62;48.44;99437.03;5655939;21;20014;-96
2024/04/11 12:06:55;;;;;;;5.53;2.97;;;;;;;22.05;47.62;99473.13;5659765;21;20134;-95
2024/04/11 12:10:12;;;;;;;9.05;2.63;;;;;;;21.50;49.78;99446.81;5787235;21;21051;31
2024/04/11 12:12:48;;;;;;;5.13;2.28;;;;;;;21.55;48.76;99452.78;5942368;22;20290;-96
2024/04/11 12:15:48;;;;;;;8.05;3.20;;;;;;;21.82;48.30;99442.09;5602429;21;20018;-94
2024/04/11 12:23:06;;;;;;;4.47;2.35;;;;;;;21.86;47.10;99453.59;5740185;21;19990;-96
2024/04/11 12:25:57;;;;;;;12.02;3.45;;;;;;;21.80;49.19;99538.78;5410235;22;20000;-96
2024/04/11 12:28:31;;;;;;;5.85;3.13;;;;;;;21.86;48.96;99532.13;5319626;21;20009;-95
2024/04/11 12:31:07;;;;;;;5.03;2.72;;;;;;;21.36;49.21;99468.38;5378499;22;20026;-94
2024/04/11 12:33:56;;;;;;;5.70;2.60;;;;;;;21.73;49.15;99538.28;5264360;27;20006;-96
2024/04/11 12:36:57;;;;;;;6.15;2.95;;;;;;;21.64;49.23;99503.69;5265099;26;20010;-96
2024/04/11 12:45:18;;;;;;;6.60;2.85;;;;;;;22.09;50.69;99539.69;5891711;22;20010;-93
2024/04/11 12:54:06;;;;;;;6.95;2.35;;;;;;;22.82;48.10;99510.72;6451111;21;21343;31
2024/04/11 12:56:33;;;;;;;4.88;2.63;;;;;;;21.69;50.07;99492.56;5181503;27;20068;-93
2024/04/11 12:59:05;;;;;;;8.32;3.28;;;;;;;21.89;50.89;99510.28;5164147;27;20091;-95
2024/04/11 13:16:23;;;;;;;5.00;2.67;;;;;;;22.40;46.67;99461.91;5260062;22;20007;-96
2024/04/11 13:21:31;;;;;;;16.90;2.60;;;;;;;22.53;47.48;99524.31;5282119;26;20017;-96
2024/04/11 13:24:10;;;;;;;4.13;2.53;;;;;;;21.77;48.38;99413.56;5264232;27;20006;-96
2024/04/11 13:26:50;;;;;;;6.15;2.78;;;;;;;21.86;48.37;99484.28;5230124;27;20419;-95
2024/04/11 13:29:18;;;;;;;5.93;2.67;;;;;;;21.34;50.03;99472.06;5249143;27;20006;-95
2024/04/11 13:36:48;;;;;;;8.38;2.70;;;;;;;20.91;51.85;99531.38;5219780;27;20032;-96
2024/04/11 13:52:33;;;;;;;5.15;2.42;;;;;;;21.41;50.33;99523.09;5370661;21;20035;-96
2024/04/11 14:01:08;;;;;;;5.30;2.75;;;;;;;21.63;49.11;99415.31;5816984;21;20035;-96
2024/04/11 14:03:45;;;;;;;5.53;2.45;;;;;;;21.74;50.13;99512.09;5293034;26;20005;-96
2024/04/11 14:06:27;;;;;;;6.03;2.95;;;;;;;21.87;50.77;99521.19;5625170;21;20018;-96
2024/04/11 14:11:34;;;;;;;6.50;2.90;;;;;;;21.42;50.35;99500.50;5483715;21;20509;-91
2024/04/11 14:14:05;;;;;;;5.35;2.63;;;;;;;21.48;50.62;99502.84;5293909;27;20009;-95
2024/04/11 14:16:51;;;;;;;5.75;3.20;;;;;;;21.42;50.29;99414.78;5489707;21;20932;-96
2024/04/11 14:19:35;;;;;;;5.53;2.95;;;;;;;21.43;50.02;99416.53;5295820;27;19994;-95
2024/04/11 14:22:29;;;;;;;6.13;2.88;;;;;;;21.55;49.40;99409.50;5460603;21;20876;31
2024/04/11 14:41:19;;;;;;;4.75;2.58;;;;;;;21.51;51.58;99508.06;5757735;21;20063;-96
2024/04/11 14:44:22;;;;;;;5.43;2.75;;;;;;;21.56;50.85;99507.78;1872593;21;20149;-96
2024/04/11 14:47:20;;;;;;;4.57;2.70;;;;;;;21.57;51.88;99509.53;6136977;21;20801;31
2024/04/11 14:50:06;;;;;;;4.00;2.10;;;;;;;20.85;50.50;99406.50;5930772;21;20212;-95
2024/04/11 14:58:53;;;;;;;6.60;2.30;;;;;;;21.47;50.62;99518.22;6132935;21;20944;31
2024/04/11 15:01:43;;;;;;;4.80;2.70;;;;;;;20.48;51.80;99423.00;5186438;27;20015;-96
2024/04/11 15:15:14;;;;;;;4.53;2.33;;;;;;;20.92;51.88;99451.13;5869212;21;20095;-96
2024/04/11 15:18:16;;;;;;;5.35;2.67;;;;;;;20.60;51.33;99401.66;5294923;27;19994;-96
2024/04/11 15:42:32;;;;;;;4.38;2.35;;;;;;;21.37;50.66;99518.84;5312403;21;20021;-96
2024/04/11 15:45:12;;;;;;;3.92;2.40;;;;;;;21.58;50.53;99513.97;5266579;27;20014;-96
2024/04/11 15:48:01;;;;;;;4.47;2.42;;;;;;;20.84;50.38;99402.94;5291579;27;20055;-96
2024/04/11 15:50:38;;;;;;;4.85;2.28;;;;;;;20.62;50.50;99407.84;5263044;27;20002;-96
2024/04/11 15:53:06;;;;;;;6.97;2.45;;;;;;;20.60;50.62;99420.56;5261968;27;20014;-96
2024/04/11 15:55:48;;;;;;;5.10;2.97;;;;;;;21.15;48.93;99493.06;5258632;27;20030;-94
2024/04/11 15:58:24;;;;;;;5.50;2.60;;;;;;;20.85;49.12;99471.38;5256825;27;19998;-96
2024/04/11 16:00:52;;;;;;;4.25;2.50;;;;;;;20.59;49.68;99433.22;5259961;27;20010;-96